sensor_id;sensor_type;location;lat;lon;timestamp;P1;durP1;ratioP1;P2;durP2;ratioP2
64075;SDS011;50327;51.328;12.324;2023-03-01T00:01:38;21.67;;;8.45;;
64075;SDS011;50327;51.328;12.324;2023-03-01T00:04:04;28.08;;;12.60;;
64075;SDS011;50327;51.328;12.324;2023-03-01T00:06:29;19.98;;;8.15;;
64075;SDS011;50327;51.328;12.324;2023-03-01T00:08:55;21.45;;;9.90;;
64075;SDS011;50327;51.328;12.324;2023-03-01T00:11:25;17.85;;;8.85;;
64075;SDS011;50327;51.328;12.324;2023-03-01T00:13:53;23.27;;;8.90;;
64075;SDS011;50327;51.328;12.324;2023-03-01T00:16:21;19.05;;;9.38;;
64075;SDS011;50327;51.328;12.324;2023-03-01T00:18:49;22.00;;;9.10;;
64075;SDS011;50327;51.328;12.324;2023-03-01T00:21:15;17.20;;;8.30;;
64075;SDS011;50327;51.328;12.324;2023-03-01T00:23:41;16.50;;;8.25;;
64075;SDS011;50327;51.328;12.324;2023-03-01T00:26:08;20.13;;;9.30;;
64075;SDS011;50327;51.328;12.324;2023-03-01T00:28:35;16.50;;;8.70;;
64075;SDS011;50327;51.328;12.324;2023-03-01T00:31:04;15.70;;;7.68;;
64075;SDS011;50327;51.328;12.324;2023-03-01T00:33:31;19.42;;;7.63;;
64075;SDS011;50327;51.328;12.324;2023-03-01T00:35:57;25.33;;;9.43;;
64075;SDS011;50327;51.328;12.324;2023-03-01T00:38:23;43.63;;;16.77;;
64075;SDS011;50327;51.328;12.324;2023-03-01T00:40:48;20.52;;;8.70;;
64075;SDS011;50327;51.328;12.324;2023-03-01T00:43:14;14.63;;;7.35;;
64075;SDS011;50327;51.328;12.324;2023-03-01T00:45:39;18.13;;;7.68;;
64075;SDS011;50327;51.328;12.324;2023-03-01T00:48:04;15.40;;;7.15;;
64075;SDS011;50327;51.328;12.324;2023-03-01T00:50:30;21.17;;;9.32;;
64075;SDS011;50327;51.328;12.324;2023-03-01T00:52:55;22.50;;;8.43;;
64075;SDS011;50327;51.328;12.324;2023-03-01T00:55:21;19.10;;;8.05;;
64075;SDS011;50327;51.328;12.324;2023-03-01T00:57:47;20.52;;;8.45;;
64075;SDS011;50327;51.328;12.324;2023-03-01T01:00:13;13.63;;;7.03;;
64075;SDS011;50327;51.328;12.324;2023-03-01T01:02:39;15.45;;;8.63;;
64075;SDS011;50327;51.328;12.324;2023-03-01T01:05:04;23.25;;;7.95;;
64075;SDS011;50327;51.328;12.324;2023-03-01T01:07:30;17.05;;;6.90;;
64075;SDS011;50327;51.328;12.324;2023-03-01T01:09:55;18.83;;;7.60;;
64075;SDS011;50327;51.328;12.324;2023-03-01T01:12:21;14.35;;;7.18;;
64075;SDS011;50327;51.328;12.324;2023-03-01T01:14:46;18.42;;;7.38;;
64075;SDS011;50327;51.328;12.324;2023-03-01T01:17:11;18.92;;;6.93;;
64075;SDS011;50327;51.328;12.324;2023-03-01T01:19:37;13.50;;;6.82;;
64075;SDS011;50327;51.328;12.324;2023-03-01T01:22:02;15.50;;;6.63;;
64075;SDS011;50327;51.328;12.324;2023-03-01T01:24:28;20.15;;;8.82;;
64075;SDS011;50327;51.328;12.324;2023-03-01T01:26:54;15.02;;;7.50;;
64075;SDS011;50327;51.328;12.324;2023-03-01T01:29:19;15.98;;;7.18;;
64075;SDS011;50327;51.328;12.324;2023-03-01T01:31:45;15.63;;;7.20;;
64075;SDS011;50327;51.328;12.324;2023-03-01T01:34:18;17.80;;;7.15;;
64075;SDS011;50327;51.328;12.324;2023-03-01T01:36:49;15.82;;;6.22;;
64075;SDS011;50327;51.328;12.324;2023-03-01T01:39:18;13.18;;;6.25;;
64075;SDS011;50327;51.328;12.324;2023-03-01T01:41:43;20.35;;;6.90;;
64075;SDS011;50327;51.328;12.324;2023-03-01T01:44:22;15.68;;;6.65;;
64075;SDS011;50327;51.328;12.324;2023-03-01T01:46:57;17.33;;;8.10;;
64075;SDS011;50327;51.328;12.324;2023-03-01T01:49:29;14.32;;;6.10;;
64075;SDS011;50327;51.328;12.324;2023-03-01T01:51:57;14.82;;;6.63;;
64075;SDS011;50327;51.328;12.324;2023-03-01T01:57:36;14.65;;;6.10;;
64075;SDS011;50327;51.328;12.324;2023-03-01T02:00:10;17.83;;;7.03;;
64075;SDS011;50327;51.328;12.324;2023-03-01T02:02:38;16.13;;;7.85;;
64075;SDS011;50327;51.328;12.324;2023-03-01T02:07:42;12.07;;;5.47;;
64075;SDS011;50327;51.328;12.324;2023-03-01T02:10:08;15.50;;;6.82;;
64075;SDS011;50327;51.328;12.324;2023-03-01T02:12:34;15.63;;;7.30;;
64075;SDS011;50327;51.328;12.324;2023-03-01T02:15:02;15.10;;;6.40;;
64075;SDS011;50327;51.328;12.324;2023-03-01T02:17:28;15.85;;;7.47;;
64075;SDS011;50327;51.328;12.324;2023-03-01T02:22:35;17.63;;;6.65;;
64075;SDS011;50327;51.328;12.324;2023-03-01T02:30:28;15.48;;;6.50;;
64075;SDS011;50327;51.328;12.324;2023-03-01T02:32:55;21.27;;;7.18;;
64075;SDS011;50327;51.328;12.324;2023-03-01T02:35:27;17.80;;;7.10;;
64075;SDS011;50327;51.328;12.324;2023-03-01T02:37:56;12.65;;;6.30;;
64075;SDS011;50327;51.328;12.324;2023-03-01T02:40:25;16.13;;;6.93;;
64075;SDS011;50327;51.328;12.324;2023-03-01T02:42:54;14.15;;;6.50;;
64075;SDS011;50327;51.328;12.324;2023-03-01T02:45:22;15.95;;;7.55;;
64075;SDS011;50327;51.328;12.324;2023-03-01T02:47:48;23.92;;;7.13;;
64075;SDS011;50327;51.328;12.324;2023-03-01T02:50:31;15.32;;;7.40;;
64075;SDS011;50327;51.328;12.324;2023-03-01T02:53:15;19.63;;;5.63;;
64075;SDS011;50327;51.328;12.324;2023-03-01T02:55:48;17.48;;;6.80;;
64075;SDS011;50327;51.328;12.324;2023-03-01T02:58:14;13.07;;;5.97;;
64075;SDS011;50327;51.328;12.324;2023-03-01T03:00:41;16.13;;;7.03;;
64075;SDS011;50327;51.328;12.324;2023-03-01T03:03:19;16.40;;;6.90;;
64075;SDS011;50327;51.328;12.324;2023-03-01T03:05:46;15.63;;;6.47;;
64075;SDS011;50327;51.328;12.324;2023-03-01T03:08:13;15.65;;;6.88;;
64075;SDS011;50327;51.328;12.324;2023-03-01T03:10:41;19.00;;;6.72;;
64075;SDS011;50327;51.328;12.324;2023-03-01T03:13:12;15.05;;;6.10;;
64075;SDS011;50327;51.328;12.324;2023-03-01T03:15:40;10.60;;;5.78;;
64075;SDS011;50327;51.328;12.324;2023-03-01T03:18:08;17.30;;;7.13;;
64075;SDS011;50327;51.328;12.324;2023-03-01T03:23:01;22.52;;;7.38;;
64075;SDS011;50327;51.328;12.324;2023-03-01T03:25:27;13.15;;;6.18;;
64075;SDS011;50327;51.328;12.324;2023-03-01T03:27:53;15.27;;;6.20;;
64075;SDS011;50327;51.328;12.324;2023-03-01T03:32:56;18.38;;;6.38;;
64075;SDS011;50327;51.328;12.324;2023-03-01T03:37:51;17.10;;;6.53;;
64075;SDS011;50327;51.328;12.324;2023-03-01T03:43:01;13.18;;;5.43;;
64075;SDS011;50327;51.328;12.324;2023-03-01T03:45:27;14.90;;;6.88;;
64075;SDS011;50327;51.328;12.324;2023-03-01T03:47:52;13.70;;;6.93;;
64075;SDS011;50327;51.328;12.324;2023-03-01T03:50:18;16.13;;;7.53;;
64075;SDS011;50327;51.328;12.324;2023-03-01T03:52:43;10.80;;;5.30;;
64075;SDS011;50327;51.328;12.324;2023-03-01T03:55:10;12.23;;;6.70;;
64075;SDS011;50327;51.328;12.324;2023-03-01T03:57:40;27.35;;;6.97;;
64075;SDS011;50327;51.328;12.324;2023-03-01T04:00:07;11.40;;;5.82;;
64075;SDS011;50327;51.328;12.324;2023-03-01T04:02:43;13.13;;;6.20;;
64075;SDS011;50327;51.328;12.324;2023-03-01T04:05:10;17.20;;;6.95;;
64075;SDS011;50327;51.328;12.324;2023-03-01T04:07:36;15.38;;;5.72;;
64075;SDS011;50327;51.328;12.324;2023-03-01T04:10:06;16.95;;;7.05;;
64075;SDS011;50327;51.328;12.324;2023-03-01T04:12:34;12.43;;;6.28;;
64075;SDS011;50327;51.328;12.324;2023-03-01T04:15:00;17.73;;;7.00;;
64075;SDS011;50327;51.328;12.324;2023-03-01T04:17:35;12.90;;;6.50;;
64075;SDS011;50327;51.328;12.324;2023-03-01T04:20:01;18.60;;;6.30;;
64075;SDS011;50327;51.328;12.324;2023-03-01T04:22:30;14.10;;;7.93;;
64075;SDS011;50327;51.328;12.324;2023-03-01T04:24:56;19.15;;;7.43;;
64075;SDS011;50327;51.328;12.324;2023-03-01T04:27:23;16.83;;;7.05;;
64075;SDS011;50327;51.328;12.324;2023-03-01T04:29:48;15.45;;;5.75;;
64075;SDS011;50327;51.328;12.324;2023-03-01T04:32:13;19.33;;;6.78;;
64075;SDS011;50327;51.328;12.324;2023-03-01T04:34:41;14.85;;;5.93;;
64075;SDS011;50327;51.328;12.324;2023-03-01T04:37:06;11.93;;;5.95;;
64075;SDS011;50327;51.328;12.324;2023-03-01T04:39:31;17.35;;;5.93;;
64075;SDS011;50327;51.328;12.324;2023-03-01T04:41:57;13.90;;;6.05;;
64075;SDS011;50327;51.328;12.324;2023-03-01T04:44:22;11.77;;;6.13;;
64075;SDS011;50327;51.328;12.324;2023-03-01T04:46:48;13.98;;;6.78;;
64075;SDS011;50327;51.328;12.324;2023-03-01T04:49:15;14.18;;;6.88;;
64075;SDS011;50327;51.328;12.324;2023-03-01T04:51:41;19.77;;;7.70;;
64075;SDS011;50327;51.328;12.324;2023-03-01T04:54:06;14.85;;;6.90;;
64075;SDS011;50327;51.328;12.324;2023-03-01T04:56:33;16.27;;;7.10;;
64075;SDS011;50327;51.328;12.324;2023-03-01T04:58:59;18.92;;;6.65;;
64075;SDS011;50327;51.328;12.324;2023-03-01T05:01:25;14.18;;;6.72;;
64075;SDS011;50327;51.328;12.324;2023-03-01T05:03:51;16.15;;;7.15;;
64075;SDS011;50327;51.328;12.324;2023-03-01T05:06:17;14.20;;;6.13;;
64075;SDS011;50327;51.328;12.324;2023-03-01T05:08:44;15.02;;;6.38;;
64075;SDS011;50327;51.328;12.324;2023-03-01T05:11:09;19.33;;;7.38;;
64075;SDS011;50327;51.328;12.324;2023-03-01T05:13:36;28.63;;;7.60;;
64075;SDS011;50327;51.328;12.324;2023-03-01T05:16:03;12.57;;;7.35;;
64075;SDS011;50327;51.328;12.324;2023-03-01T05:18:31;14.60;;;7.03;;
64075;SDS011;50327;51.328;12.324;2023-03-01T05:21:07;13.80;;;7.30;;
64075;SDS011;50327;51.328;12.324;2023-03-01T05:23:35;14.75;;;5.85;;
64075;SDS011;50327;51.328;12.324;2023-03-01T05:26:02;14.38;;;7.25;;
64075;SDS011;50327;51.328;12.324;2023-03-01T05:28:29;12.77;;;6.07;;
64075;SDS011;50327;51.328;12.324;2023-03-01T05:30:55;13.23;;;6.47;;
64075;SDS011;50327;51.328;12.324;2023-03-01T05:33:20;11.75;;;6.50;;
64075;SDS011;50327;51.328;12.324;2023-03-01T05:35:47;16.50;;;7.95;;
64075;SDS011;50327;51.328;12.324;2023-03-01T05:38:13;12.75;;;7.22;;
64075;SDS011;50327;51.328;12.324;2023-03-01T05:40:43;17.27;;;6.43;;
64075;SDS011;50327;51.328;12.324;2023-03-01T05:43:10;18.13;;;7.63;;
64075;SDS011;50327;51.328;12.324;2023-03-01T05:45:39;16.20;;;7.45;;
64075;SDS011;50327;51.328;12.324;2023-03-01T05:48:05;17.70;;;7.47;;
64075;SDS011;50327;51.328;12.324;2023-03-01T05:50:32;23.40;;;6.95;;
64075;SDS011;50327;51.328;12.324;2023-03-01T05:55:27;15.35;;;6.20;;
64075;SDS011;50327;51.328;12.324;2023-03-01T05:57:54;16.25;;;6.63;;
64075;SDS011;50327;51.328;12.324;2023-03-01T06:00:20;25.65;;;8.20;;
64075;SDS011;50327;51.328;12.324;2023-03-01T06:02:49;14.25;;;7.20;;
64075;SDS011;50327;51.328;12.324;2023-03-01T06:05:16;15.95;;;7.60;;
64075;SDS011;50327;51.328;12.324;2023-03-01T06:07:42;16.63;;;7.28;;
64075;SDS011;50327;51.328;12.324;2023-03-01T06:10:09;16.45;;;6.85;;
64075;SDS011;50327;51.328;12.324;2023-03-01T06:12:35;22.92;;;7.70;;
64075;SDS011;50327;51.328;12.324;2023-03-01T06:15:02;16.20;;;7.70;;
64075;SDS011;50327;51.328;12.324;2023-03-01T06:17:30;14.13;;;6.82;;
64075;SDS011;50327;51.328;12.324;2023-03-01T06:19:56;20.45;;;9.13;;
64075;SDS011;50327;51.328;12.324;2023-03-01T06:22:22;14.32;;;7.00;;
64075;SDS011;50327;51.328;12.324;2023-03-01T06:24:47;25.83;;;7.88;;
64075;SDS011;50327;51.328;12.324;2023-03-01T06:27:12;14.43;;;6.72;;
64075;SDS011;50327;51.328;12.324;2023-03-01T06:29:38;17.05;;;7.97;;
64075;SDS011;50327;51.328;12.324;2023-03-01T06:32:03;23.58;;;7.90;;
64075;SDS011;50327;51.328;12.324;2023-03-01T06:34:29;25.42;;;9.90;;
64075;SDS011;50327;51.328;12.324;2023-03-01T06:36:55;25.88;;;12.48;;
64075;SDS011;50327;51.328;12.324;2023-03-01T06:39:20;29.85;;;12.45;;
64075;SDS011;50327;51.328;12.324;2023-03-01T06:41:45;23.52;;;9.45;;
64075;SDS011;50327;51.328;12.324;2023-03-01T06:44:11;32.63;;;12.77;;
64075;SDS011;50327;51.328;12.324;2023-03-01T06:46:36;22.73;;;9.98;;
64075;SDS011;50327;51.328;12.324;2023-03-01T06:49:02;21.95;;;9.25;;
64075;SDS011;50327;51.328;12.324;2023-03-01T06:51:32;24.88;;;8.55;;
64075;SDS011;50327;51.328;12.324;2023-03-01T06:53:57;19.05;;;8.60;;
64075;SDS011;50327;51.328;12.324;2023-03-01T06:56:23;16.83;;;8.00;;
64075;SDS011;50327;51.328;12.324;2023-03-01T06:58:48;15.65;;;8.10;;
64075;SDS011;50327;51.328;12.324;2023-03-01T07:01:13;22.27;;;9.27;;
64075;SDS011;50327;51.328;12.324;2023-03-01T07:03:39;20.08;;;8.65;;
64075;SDS011;50327;51.328;12.324;2023-03-01T07:06:04;19.17;;;9.70;;
64075;SDS011;50327;51.328;12.324;2023-03-01T07:08:30;17.92;;;7.55;;
64075;SDS011;50327;51.328;12.324;2023-03-01T07:10:56;21.10;;;8.10;;
64075;SDS011;50327;51.328;12.324;2023-03-01T07:13:22;15.75;;;7.57;;
64075;SDS011;50327;51.328;12.324;2023-03-01T07:15:47;23.17;;;9.43;;
64075;SDS011;50327;51.328;12.324;2023-03-01T07:18:13;37.95;;;9.73;;
64075;SDS011;50327;51.328;12.324;2023-03-01T07:20:38;20.30;;;8.13;;
64075;SDS011;50327;51.328;12.324;2023-03-01T07:23:04;16.10;;;8.43;;
64075;SDS011;50327;51.328;12.324;2023-03-01T07:25:30;17.77;;;8.60;;
64075;SDS011;50327;51.328;12.324;2023-03-01T07:27:57;17.95;;;9.10;;
64075;SDS011;50327;51.328;12.324;2023-03-01T07:30:23;23.88;;;8.70;;
64075;SDS011;50327;51.328;12.324;2023-03-01T07:32:50;23.98;;;8.65;;
64075;SDS011;50327;51.328;12.324;2023-03-01T07:35:16;27.17;;;9.45;;
64075;SDS011;50327;51.328;12.324;2023-03-01T07:37:41;23.70;;;8.75;;
64075;SDS011;50327;51.328;12.324;2023-03-01T07:40:07;17.00;;;8.07;;
64075;SDS011;50327;51.328;12.324;2023-03-01T07:42:33;17.65;;;8.32;;
64075;SDS011;50327;51.328;12.324;2023-03-01T07:44:58;19.15;;;9.00;;
64075;SDS011;50327;51.328;12.324;2023-03-01T07:47:24;21.65;;;8.65;;
64075;SDS011;50327;51.328;12.324;2023-03-01T07:49:49;25.88;;;9.18;;
64075;SDS011;50327;51.328;12.324;2023-03-01T07:52:14;19.70;;;10.10;;
64075;SDS011;50327;51.328;12.324;2023-03-01T07:54:42;21.35;;;9.18;;
64075;SDS011;50327;51.328;12.324;2023-03-01T07:57:08;20.25;;;8.43;;
64075;SDS011;50327;51.328;12.324;2023-03-01T07:59:33;22.75;;;9.85;;
64075;SDS011;50327;51.328;12.324;2023-03-01T08:01:58;21.33;;;9.30;;
64075;SDS011;50327;51.328;12.324;2023-03-01T08:04:24;47.60;;;9.98;;
64075;SDS011;50327;51.328;12.324;2023-03-01T08:06:51;20.75;;;9.05;;
64075;SDS011;50327;51.328;12.324;2023-03-01T08:09:17;26.02;;;9.10;;
64075;SDS011;50327;51.328;12.324;2023-03-01T08:11:42;17.88;;;8.18;;
64075;SDS011;50327;51.328;12.324;2023-03-01T08:14:08;20.27;;;10.05;;
64075;SDS011;50327;51.328;12.324;2023-03-01T08:16:36;23.50;;;9.55;;
64075;SDS011;50327;51.328;12.324;2023-03-01T08:19:05;21.45;;;8.95;;
64075;SDS011;50327;51.328;12.324;2023-03-01T08:21:32;14.60;;;8.10;;
64075;SDS011;50327;51.328;12.324;2023-03-01T08:23:59;20.10;;;8.90;;
64075;SDS011;50327;51.328;12.324;2023-03-01T08:26:25;17.42;;;9.40;;
64075;SDS011;50327;51.328;12.324;2023-03-01T08:28:51;21.75;;;10.70;;
64075;SDS011;50327;51.328;12.324;2023-03-01T08:33:57;22.75;;;9.55;;
64075;SDS011;50327;51.328;12.324;2023-03-01T08:36:29;24.75;;;10.07;;
64075;SDS011;50327;51.328;12.324;2023-03-01T08:38:56;23.58;;;9.07;;
64075;SDS011;50327;51.328;12.324;2023-03-01T08:41:22;15.68;;;7.40;;
64075;SDS011;50327;51.328;12.324;2023-03-01T08:43:48;23.73;;;9.57;;
64075;SDS011;50327;51.328;12.324;2023-03-01T08:46:14;26.55;;;9.45;;
64075;SDS011;50327;51.328;12.324;2023-03-01T08:48:39;22.20;;;9.68;;
64075;SDS011;50327;51.328;12.324;2023-03-01T08:51:08;19.42;;;9.10;;
64075;SDS011;50327;51.328;12.324;2023-03-01T08:53:38;25.45;;;10.43;;
64075;SDS011;50327;51.328;12.324;2023-03-01T08:56:04;26.17;;;10.15;;
64075;SDS011;50327;51.328;12.324;2023-03-01T08:58:30;23.20;;;11.07;;
64075;SDS011;50327;51.328;12.324;2023-03-01T09:00:55;29.38;;;10.15;;
64075;SDS011;50327;51.328;12.324;2023-03-01T09:03:24;22.97;;;10.03;;
64075;SDS011;50327;51.328;12.324;2023-03-01T09:05:50;24.63;;;11.45;;
64075;SDS011;50327;51.328;12.324;2023-03-01T09:08:17;28.08;;;10.00;;
64075;SDS011;50327;51.328;12.324;2023-03-01T09:10:42;26.38;;;10.07;;
64075;SDS011;50327;51.328;12.324;2023-03-01T09:13:08;29.15;;;10.10;;
64075;SDS011;50327;51.328;12.324;2023-03-01T09:15:34;22.52;;;8.90;;
64075;SDS011;50327;51.328;12.324;2023-03-01T09:18:01;21.52;;;10.27;;
64075;SDS011;50327;51.328;12.324;2023-03-01T09:20:27;23.38;;;11.10;;
64075;SDS011;50327;51.328;12.324;2023-03-01T09:22:52;24.38;;;10.40;;
64075;SDS011;50327;51.328;12.324;2023-03-01T09:25:18;23.90;;;10.73;;
64075;SDS011;50327;51.328;12.324;2023-03-01T09:27:43;25.77;;;9.50;;
64075;SDS011;50327;51.328;12.324;2023-03-01T09:30:09;27.90;;;9.77;;
64075;SDS011;50327;51.328;12.324;2023-03-01T09:32:35;20.20;;;8.93;;
64075;SDS011;50327;51.328;12.324;2023-03-01T09:35:00;25.25;;;9.27;;
64075;SDS011;50327;51.328;12.324;2023-03-01T09:37:28;20.95;;;8.82;;
64075;SDS011;50327;51.328;12.324;2023-03-01T09:39:54;22.67;;;9.43;;
64075;SDS011;50327;51.328;12.324;2023-03-01T09:42:19;24.05;;;9.77;;
64075;SDS011;50327;51.328;12.324;2023-03-01T09:44:46;21.17;;;9.13;;
64075;SDS011;50327;51.328;12.324;2023-03-01T09:47:26;23.55;;;10.52;;
64075;SDS011;50327;51.328;12.324;2023-03-01T09:50:02;20.55;;;9.48;;
64075;SDS011;50327;51.328;12.324;2023-03-01T09:52:40;23.02;;;9.90;;
64075;SDS011;50327;51.328;12.324;2023-03-01T09:55:50;21.13;;;10.27;;
64075;SDS011;50327;51.328;12.324;2023-03-01T09:58:25;19.85;;;9.30;;
64075;SDS011;50327;51.328;12.324;2023-03-01T10:00:57;27.60;;;10.20;;
64075;SDS011;50327;51.328;12.324;2023-03-01T10:11:25;29.95;;;10.52;;
64075;SDS011;50327;51.328;12.324;2023-03-01T10:19:02;31.90;;;10.23;;
64075;SDS011;50327;51.328;12.324;2023-03-01T10:21:30;23.17;;;10.68;;
64075;SDS011;50327;51.328;12.324;2023-03-01T10:24:12;18.83;;;9.52;;
64075;SDS011;50327;51.328;12.324;2023-03-01T10:26:55;19.83;;;9.05;;
64075;SDS011;50327;51.328;12.324;2023-03-01T10:29:26;21.80;;;9.75;;
64075;SDS011;50327;51.328;12.324;2023-03-01T10:31:59;26.15;;;10.32;;
64075;SDS011;50327;51.328;12.324;2023-03-01T10:34:27;22.65;;;9.63;;
64075;SDS011;50327;51.328;12.324;2023-03-01T10:36:59;19.98;;;9.15;;
64075;SDS011;50327;51.328;12.324;2023-03-01T10:39:37;25.35;;;8.98;;
64075;SDS011;50327;51.328;12.324;2023-03-01T10:42:39;24.23;;;10.32;;
64075;SDS011;50327;51.328;12.324;2023-03-01T10:45:17;24.50;;;10.52;;
64075;SDS011;50327;51.328;12.324;2023-03-01T10:50:41;16.63;;;8.05;;
64075;SDS011;50327;51.328;12.324;2023-03-01T10:53:20;26.83;;;9.50;;
64075;SDS011;50327;51.328;12.324;2023-03-01T10:55:56;26.02;;;9.40;;
64075;SDS011;50327;51.328;12.324;2023-03-01T10:58:23;26.60;;;9.52;;
64075;SDS011;50327;51.328;12.324;2023-03-01T11:00:50;19.95;;;9.38;;
64075;SDS011;50327;51.328;12.324;2023-03-01T11:03:24;22.27;;;9.65;;
64075;SDS011;50327;51.328;12.324;2023-03-01T11:08:28;22.35;;;10.00;;
64075;SDS011;50327;51.328;12.324;2023-03-01T11:13:36;26.27;;;9.43;;
64075;SDS011;50327;51.328;12.324;2023-03-01T11:16:40;17.20;;;7.65;;
64075;SDS011;50327;51.328;12.324;2023-03-01T11:24:11;30.10;;;9.57;;
64075;SDS011;50327;51.328;12.324;2023-03-01T11:26:40;23.13;;;9.70;;
64075;SDS011;50327;51.328;12.324;2023-03-01T11:29:25;22.00;;;11.65;;
64075;SDS011;50327;51.328;12.324;2023-03-01T11:31:51;19.98;;;10.45;;
64075;SDS011;50327;51.328;12.324;2023-03-01T11:34:19;19.63;;;9.93;;
64075;SDS011;50327;51.328;12.324;2023-03-01T11:37:01;20.40;;;9.32;;
64075;SDS011;50327;51.328;12.324;2023-03-01T11:39:36;27.88;;;11.38;;
64075;SDS011;50327;51.328;12.324;2023-03-01T11:42:10;26.13;;;10.93;;
64075;SDS011;50327;51.328;12.324;2023-03-01T11:44:39;24.63;;;10.68;;
64075;SDS011;50327;51.328;12.324;2023-03-01T11:50:13;19.35;;;10.43;;
64075;SDS011;50327;51.328;12.324;2023-03-01T12:12:30;20.63;;;10.13;;
64075;SDS011;50327;51.328;12.324;2023-03-01T12:17:56;25.25;;;12.02;;
64075;SDS011;50327;51.328;12.324;2023-03-01T12:26:33;24.25;;;11.65;;
64075;SDS011;50327;51.328;12.324;2023-03-01T12:40:26;20.77;;;8.95;;
64075;SDS011;50327;51.328;12.324;2023-03-01T12:46:19;18.10;;;7.68;;
64075;SDS011;50327;51.328;12.324;2023-03-01T12:51:34;15.55;;;8.55;;
64075;SDS011;50327;51.328;12.324;2023-03-01T12:54:05;23.77;;;8.90;;
64075;SDS011;50327;51.328;12.324;2023-03-01T12:56:36;17.40;;;7.55;;
64075;SDS011;50327;51.328;12.324;2023-03-01T13:07:24;19.67;;;8.90;;
64075;SDS011;50327;51.328;12.324;2023-03-01T13:15:28;23.20;;;9.98;;
64075;SDS011;50327;51.328;12.324;2023-03-01T13:23:13;19.85;;;9.63;;
64075;SDS011;50327;51.328;12.324;2023-03-01T13:26:09;20.10;;;9.38;;
64075;SDS011;50327;51.328;12.324;2023-03-01T13:41:48;17.55;;;8.32;;
64075;SDS011;50327;51.328;12.324;2023-03-01T13:46:42;17.50;;;8.73;;
64075;SDS011;50327;51.328;12.324;2023-03-01T13:49:11;21.92;;;8.88;;
64075;SDS011;50327;51.328;12.324;2023-03-01T13:51:46;21.63;;;9.77;;
64075;SDS011;50327;51.328;12.324;2023-03-01T13:54:12;22.38;;;9.43;;
64075;SDS011;50327;51.328;12.324;2023-03-01T13:56:40;18.77;;;8.68;;
64075;SDS011;50327;51.328;12.324;2023-03-01T13:59:13;21.38;;;8.52;;
64075;SDS011;50327;51.328;12.324;2023-03-01T14:01:42;20.35;;;8.88;;
64075;SDS011;50327;51.328;12.324;2023-03-01T14:06:47;17.15;;;8.15;;
64075;SDS011;50327;51.328;12.324;2023-03-01T14:09:20;15.63;;;7.80;;
64075;SDS011;50327;51.328;12.324;2023-03-01T14:12:02;21.02;;;9.02;;
64075;SDS011;50327;51.328;12.324;2023-03-01T14:17:59;19.17;;;8.68;;
64075;SDS011;50327;51.328;12.324;2023-03-01T14:20:33;17.63;;;7.55;;
64075;SDS011;50327;51.328;12.324;2023-03-01T14:23:10;22.50;;;7.45;;
64075;SDS011;50327;51.328;12.324;2023-03-01T14:25:38;19.80;;;8.50;;
64075;SDS011;50327;51.328;12.324;2023-03-01T14:30:49;16.23;;;7.43;;
64075;SDS011;50327;51.328;12.324;2023-03-01T14:38:32;15.70;;;7.07;;
64075;SDS011;50327;51.328;12.324;2023-03-01T14:41:22;14.98;;;6.68;;
64075;SDS011;50327;51.328;12.324;2023-03-01T14:46:22;11.82;;;5.22;;
64075;SDS011;50327;51.328;12.324;2023-03-01T14:48:49;13.27;;;6.93;;
64075;SDS011;50327;51.328;12.324;2023-03-01T14:51:19;14.93;;;6.45;;
64075;SDS011;50327;51.328;12.324;2023-03-01T14:53:45;16.27;;;6.55;;
64075;SDS011;50327;51.328;12.324;2023-03-01T14:56:14;17.92;;;6.80;;
64075;SDS011;50327;51.328;12.324;2023-03-01T14:58:44;14.93;;;6.30;;
64075;SDS011;50327;51.328;12.324;2023-03-01T15:01:13;11.90;;;5.63;;
64075;SDS011;50327;51.328;12.324;2023-03-01T15:03:44;13.18;;;6.40;;
64075;SDS011;50327;51.328;12.324;2023-03-01T15:06:14;15.15;;;5.88;;
64075;SDS011;50327;51.328;12.324;2023-03-01T15:08:44;16.55;;;5.43;;
64075;SDS011;50327;51.328;12.324;2023-03-01T15:11:22;17.00;;;6.15;;
64075;SDS011;50327;51.328;12.324;2023-03-01T15:13:49;14.48;;;6.68;;
64075;SDS011;50327;51.328;12.324;2023-03-01T15:16:26;15.02;;;6.40;;
64075;SDS011;50327;51.328;12.324;2023-03-01T15:21:27;16.73;;;6.35;;
64075;SDS011;50327;51.328;12.324;2023-03-01T15:23:57;13.10;;;5.57;;
64075;SDS011;50327;51.328;12.324;2023-03-01T15:26:29;15.52;;;6.00;;
64075;SDS011;50327;51.328;12.324;2023-03-01T15:28:58;13.25;;;6.22;;
64075;SDS011;50327;51.328;12.324;2023-03-01T15:31:25;14.45;;;6.25;;
64075;SDS011;50327;51.328;12.324;2023-03-01T15:34:06;15.00;;;6.13;;
64075;SDS011;50327;51.328;12.324;2023-03-01T15:36:42;12.88;;;5.50;;
64075;SDS011;50327;51.328;12.324;2023-03-01T15:39:25;10.75;;;5.70;;
64075;SDS011;50327;51.328;12.324;2023-03-01T15:45:09;12.93;;;5.88;;
64075;SDS011;50327;51.328;12.324;2023-03-01T15:47:40;14.73;;;6.38;;
64075;SDS011;50327;51.328;12.324;2023-03-01T15:50:18;15.65;;;5.57;;
64075;SDS011;50327;51.328;12.324;2023-03-01T15:52:44;17.88;;;6.40;;
64075;SDS011;50327;51.328;12.324;2023-03-01T15:55:23;14.50;;;7.00;;
64075;SDS011;50327;51.328;12.324;2023-03-01T15:58:20;16.65;;;6.30;;
64075;SDS011;50327;51.328;12.324;2023-03-01T16:00:45;21.38;;;6.93;;
64075;SDS011;50327;51.328;12.324;2023-03-01T16:03:13;16.50;;;6.65;;
64075;SDS011;50327;51.328;12.324;2023-03-01T16:05:46;18.08;;;5.75;;
64075;SDS011;50327;51.328;12.324;2023-03-01T16:08:12;20.00;;;6.15;;
64075;SDS011;50327;51.328;12.324;2023-03-01T16:10:38;25.63;;;10.85;;
64075;SDS011;50327;51.328;12.324;2023-03-01T16:13:05;10.98;;;5.20;;
64075;SDS011;50327;51.328;12.324;2023-03-01T16:15:31;18.48;;;6.93;;
64075;SDS011;50327;51.328;12.324;2023-03-01T16:18:01;14.73;;;6.88;;
64075;SDS011;50327;51.328;12.324;2023-03-01T16:20:27;19.65;;;7.82;;
64075;SDS011;50327;51.328;12.324;2023-03-01T16:22:54;16.83;;;6.47;;
64075;SDS011;50327;51.328;12.324;2023-03-01T16:25:23;13.32;;;5.70;;
64075;SDS011;50327;51.328;12.324;2023-03-01T16:27:49;16.75;;;5.80;;
64075;SDS011;50327;51.328;12.324;2023-03-01T16:30:16;14.10;;;5.50;;
64075;SDS011;50327;51.328;12.324;2023-03-01T16:32:46;12.43;;;5.65;;
64075;SDS011;50327;51.328;12.324;2023-03-01T16:35:14;12.43;;;5.63;;
64075;SDS011;50327;51.328;12.324;2023-03-01T16:37:41;16.08;;;6.60;;
64075;SDS011;50327;51.328;12.324;2023-03-01T16:40:11;19.65;;;7.85;;
64075;SDS011;50327;51.328;12.324;2023-03-01T16:42:42;12.95;;;5.22;;
64075;SDS011;50327;51.328;12.324;2023-03-01T16:45:08;14.52;;;5.78;;
64075;SDS011;50327;51.328;12.324;2023-03-01T16:47:34;12.35;;;6.10;;
64075;SDS011;50327;51.328;12.324;2023-03-01T16:49:59;11.73;;;5.40;;
64075;SDS011;50327;51.328;12.324;2023-03-01T16:52:25;15.10;;;6.53;;
64075;SDS011;50327;51.328;12.324;2023-03-01T16:54:50;12.00;;;5.10;;
64075;SDS011;50327;51.328;12.324;2023-03-01T16:57:16;17.13;;;5.40;;
64075;SDS011;50327;51.328;12.324;2023-03-01T16:59:42;14.30;;;5.88;;
64075;SDS011;50327;51.328;12.324;2023-03-01T17:02:11;15.48;;;5.50;;
64075;SDS011;50327;51.328;12.324;2023-03-01T17:04:38;12.57;;;5.05;;
64075;SDS011;50327;51.328;12.324;2023-03-01T17:07:04;10.35;;;4.97;;
64075;SDS011;50327;51.328;12.324;2023-03-01T17:09:29;14.35;;;5.53;;
64075;SDS011;50327;51.328;12.324;2023-03-01T17:11:54;25.17;;;5.57;;